Prairie Grove, Iowa
Current Conditions -  °F | °C
As of 6:53 PM on Monday 22 Dec 2014 (Local Time) from KBRL Reporting Station
Light Rain Light Rain  
Wind Chill: 38°   Ceiling: 200
Heat Index: 42°   Visibility: 4mi
Dew Point: 42°   Wind: 6mph
Humidity: 100%   Direction: 120°ESE
Pressure: 29.51"   Gusts: NA
Location:  40.8198°N, 91.2162°W
Report Text: KBRL 230053Z AUTO 12005KT 4SM -RA BR OVC002 06/06 A2951 RMK AO2 SLP996 P0002 T00560056
Loading
Personal Weather Stations






























Interactive Weather Map New forecast layout! Learn more

10-Day Weather Forecast

Advertisements
Track Severe Weather on mobile